createdAt,value
2018-06-16T13:29:55.804Z,97822.25
2018-06-16T13:30:59.739Z,97620.14
2018-06-16T13:32:03.566Z,97794.19
2018-06-16T13:33:07.367Z,97794.34
2018-06-16T13:34:11.186Z,97792.77
2018-06-16T13:35:15.317Z,97792.16
2018-06-16T13:36:19.131Z,97796.31
2018-06-16T13:37:22.945Z,97788.58
2018-06-16T13:38:26.852Z,97796.77
2018-06-16T13:39:30.645Z,97779.69
2018-06-16T13:40:35.475Z,97780.73
2018-06-16T13:41:41.106Z,97782.93
2018-06-16T13:42:45.563Z,97779.70
2018-06-16T13:43:49.407Z,97780.80
2018-06-16T13:44:53.275Z,97776.23
2018-06-16T13:45:57.054Z,97770.17
2018-06-16T13:47:00.852Z,97776.29
2018-06-16T13:48:05.321Z,97778.25
2018-06-16T13:49:09.601Z,97776.14
2018-06-16T13:50:16.278Z,97780.42
2018-06-16T13:51:20.183Z,97773.53
2018-06-16T13:52:24.032Z,97781.28
2018-06-16T13:53:27.812Z,97784.57
2018-06-16T13:54:33.929Z,97780.15
2018-06-16T13:55:38.764Z,97775.58
2018-06-16T13:56:45.162Z,97776.55
2018-06-16T13:57:49.625Z,97782.44
2018-06-16T13:58:53.435Z,97787.72
2018-06-16T13:59:57.243Z,97780.47
2018-06-16T14:01:01.662Z,97770.73
2018-06-16T14:02:05.449Z,97780.35
2018-06-16T14:03:09.514Z,97781.22
2018-06-16T14:04:13.345Z,97779.14
2018-06-16T14:05:17.789Z,97774.66
2018-06-16T14:06:22.558Z,97776.05
2018-06-16T14:07:26.784Z,97772.98
2018-06-16T14:09:58.399Z,97779.41
2018-06-16T14:11:05.851Z,97772.45
2018-06-16T14:12:19.208Z,97776.47
2018-06-16T14:13:29.831Z,97777.63
2018-06-16T14:14:36.686Z,97785.34
2018-06-16T14:15:43.211Z,97778.55
2018-06-16T14:16:48.435Z,97779.88
2018-06-16T14:17:52.392Z,97777.80
2018-06-16T14:18:57.359Z,97776.05
2018-06-16T14:20:04.424Z,97789.67
2018-06-16T14:21:08.324Z,97790.23
2018-06-16T14:22:13.287Z,97773.46
2018-06-16T14:23:17.419Z,97772.34
2018-06-16T14:24:23.202Z,97769.19
2018-06-16T14:25:28.452Z,97773.94
2018-06-16T14:26:33.892Z,97776.05
2018-06-16T14:27:39.764Z,97771.53
2018-06-16T14:28:44.360Z,97761.44
2018-06-16T14:29:49.474Z,97768.72
2018-06-16T14:30:54.539Z,97782.55
2018-06-16T14:31:59.641Z,97770.05
2018-06-16T14:33:05.160Z,97775.87
2018-06-16T18:04:42.986Z,97591.11
2018-06-16T18:05:46.982Z,97725.30
2018-06-16T18:06:50.973Z,97727.34
2018-06-16T18:07:54.902Z,97723.66
2018-06-16T18:08:58.724Z,97726.20
2018-06-16T18:10:05.575Z,97728.79
2018-06-16T18:11:09.402Z,97726.50
2018-06-16T18:12:16.673Z,97721.52
2018-06-16T18:13:22.043Z,97723.23
2018-06-16T18:14:26.695Z,97724.19
2018-06-16T18:15:30.534Z,97724.57
2018-06-16T18:16:36.474Z,97727.59
2018-06-16T18:17:40.377Z,97722.25
2018-06-16T18:18:44.736Z,97727.77
2018-06-16T18:19:50.185Z,97726.55
2018-06-16T18:20:57.773Z,97727.38
2018-06-16T18:22:02.101Z,97727.03
2018-06-16T18:23:05.887Z,97731.90
2018-06-16T18:24:09.702Z,97729.23
2018-06-16T18:25:13.491Z,97732.85
2018-06-16T18:26:17.359Z,97734.58
2018-06-16T18:27:22.965Z,97734.58
2018-06-16T18:28:27.045Z,97726.17
2018-06-16T18:29:32.106Z,97731.52
2018-06-16T18:30:39.340Z,97731.52
2018-06-16T18:31:44.937Z,97732.85
2018-06-16T18:32:49.411Z,97727.98
2018-06-16T18:33:54.719Z,97731.03
2018-06-16T18:34:59.829Z,97732.85
2018-06-16T18:36:03.721Z,97724.45
2018-06-16T18:37:07.586Z,97734.27
2018-06-16T18:38:11.390Z,97727.23
2018-06-16T18:39:17.241Z,97727.72
2018-06-16T18:40:21.564Z,97721.42
2018-06-16T18:41:29.206Z,97725.91
2018-06-16T18:42:34.397Z,97731.34
2018-06-16T18:43:39.024Z,97728.79
2018-06-16T18:44:46.425Z,97727.45
2018-06-16T18:45:51.703Z,97731.46
2018-06-16T18:46:56.411Z,97732.88
2018-06-16T18:48:01.410Z,97735.94
2018-06-16T18:49:05.245Z,97739.48
2018-06-16T18:50:09.033Z,97734.61
2018-06-16T18:51:12.836Z,97738.52
2018-06-16T18:52:17.434Z,97738.02
2018-06-16T18:53:21.891Z,97734.01
2018-06-16T18:54:25.715Z,97733.66
2018-06-16T18:55:29.541Z,97538.25
2018-06-16T18:56:33.430Z,97732.41
2018-06-16T18:57:38.939Z,97736.41
2018-06-16T18:58:42.741Z,97734.13
2018-06-16T18:59:48.675Z,97743.48
2018-06-16T19:00:52.541Z,97732.80
2018-06-16T19:01:59.022Z,97733.39
2018-06-16T19:03:03.460Z,97735.86
2018-06-16T19:04:08.720Z,97727.92
2018-06-16T19:05:12.743Z,97735.47
2018-06-16T19:06:16.999Z,97734.61
2018-06-16T19:07:20.796Z,97734.13
2018-06-16T19:08:25.526Z,97730.98
2018-06-16T19:09:29.447Z,97734.47
2018-06-16T19:10:36.903Z,97727.92
2018-06-16T19:11:41.412Z,97731.52
2018-06-16T19:12:45.689Z,97738.72
2018-06-16T19:13:49.569Z,97746.80
2018-06-16T19:14:54.224Z,97751.66
2018-06-16T19:15:59.655Z,97739.42
2018-06-16T19:17:03.743Z,97738.63
2018-06-16T19:18:13.276Z,97740.53
2018-06-16T19:19:18.540Z,97742.05
2018-06-16T19:20:24.041Z,97741.92
2018-06-16T19:21:28.500Z,97740.50
2018-06-16T19:22:33.395Z,97742.09
2018-06-16T19:23:37.673Z,97750.11
2018-06-16T19:24:42.964Z,97737.14
2018-06-16T19:25:49.771Z,97743.31
2018-06-16T19:26:54.185Z,97742.36
2018-06-16T19:27:58.657Z,97744.91
2018-06-16T19:29:05.203Z,97747.49
2018-06-16T19:30:11.268Z,97751.03
2018-06-16T19:31:16.162Z,97753.70
2018-06-16T19:32:20.440Z,97752.72
2018-06-16T19:33:24.302Z,97758.19
2018-06-16T19:34:28.134Z,97757.23
2018-06-16T19:35:33.033Z,97761.59
2018-06-16T19:36:37.568Z,97763.41
2018-06-16T19:37:41.440Z,97764.66
2018-06-16T19:38:45.371Z,97782.13
2018-06-16T19:39:49.163Z,97765.61
2018-06-16T19:40:58.099Z,97765.61
2018-06-16T19:42:03.912Z,97767.42
2018-06-16T19:43:08.122Z,97772.67
2018-06-16T19:44:11.973Z,97773.03
2018-06-16T19:45:16.099Z,97774.36
2018-06-16T19:46:22.952Z,97775.70
2018-06-16T19:47:26.882Z,97784.02
2018-06-16T19:48:30.747Z,97772.08
2018-06-16T19:49:34.908Z,97771.12
2018-06-16T19:50:38.757Z,97778.28
2018-06-16T19:51:44.224Z,97782.77
2018-06-16T19:52:48.864Z,97775.14
2018-06-16T19:53:55.836Z,97783.89
2018-06-16T19:55:02.463Z,97782.95
2018-06-16T19:56:13.461Z,97785.11
2018-06-16T19:57:18.388Z,97780.84
2018-06-16T19:58:22.681Z,97792.66
2018-06-16T19:59:26.574Z,97792.30
2018-06-16T20:00:33.226Z,97798.39
2018-06-16T20:01:38.018Z,97800.20
2018-06-16T20:02:44.123Z,97814.30
2018-06-16T20:03:49.171Z,97815.08
2018-06-16T20:04:53.019Z,97816.16
2018-06-16T20:05:57.525Z,97823.78
2018-06-16T20:07:01.971Z,97819.13
2018-06-16T20:08:07.270Z,97822.27
2018-06-16T20:09:14.601Z,97827.88
2018-06-16T20:10:20.579Z,97827.80
2018-06-16T20:11:26.137Z,97825.52
2018-06-16T20:12:30.721Z,97828.75
2018-06-16T20:13:36.731Z,97831.33
2018-06-16T20:14:41.664Z,97829.99
2018-06-16T20:15:46.013Z,97832.94
2018-06-16T20:16:51.362Z,97830.86
2018-06-16T20:17:55.824Z,97837.54
2018-06-16T20:19:01.422Z,97863.89
2018-06-16T20:20:10.177Z,97841.16
